Time;durP1;ratioP1;P1;durP2;ratioP2;P2;SDS_P1;SDS_P2;PMS_P1;PMS_P2;Temp;Humidity;BMP_temperature;BMP_pressure;BME280_temperature;BME280_humidity;BME280_pressure;Samples;Min_cycle;Max_cycle;Signal;HPM_P1;HPM_P2
2022/11/17 00:01:56;;;;;;;5.32;2.70;;;14.80;84.50;;;;;;4993383;28;20490;-80
2022/11/17 00:04:24;;;;;;;4.97;2.63;;;14.70;84.50;;;;;;4994978;28;20022;-80
2022/11/17 00:06:49;;;;;;;4.88;2.63;;;14.70;84.60;;;;;;4993416;28;20022;-80
2022/11/17 00:09:16;;;;;;;4.90;2.83;;;14.70;84.60;;;;;;4993314;28;20014;-80
2022/11/17 00:14:32;;;;;;;5.13;2.63;;;14.70;84.30;;;;;;4994866;28;20053;-80
2022/11/17 00:17:24;;;;;;;5.90;3.08;;;14.70;84.30;;;;;;4992720;28;20072;-79
2022/11/17 00:22:34;;;;;;;5.25;2.90;;;14.70;84.20;;;;;;4975153;28;20034;-80
2022/11/17 00:24:59;;;;;;;5.97;3.08;;;14.70;83.90;;;;;;4980530;28;20386;-81
2022/11/17 00:27:25;;;;;;;5.72;3.22;;;14.70;83.60;;;;;;4993686;28;20025;-79
2022/11/17 00:29:50;;;;;;;5.63;3.00;;;14.70;83.60;;;;;;4994390;28;20022;-80
2022/11/17 00:35:03;;;;;;;5.88;3.00;;;14.70;83.90;;;;;;4998493;28;20484;-80
2022/11/17 00:37:32;;;;;;;5.60;3.20;;;14.70;83.80;;;;;;4998542;28;20038;-80
2022/11/17 00:39:58;;;;;;;5.72;2.97;;;14.70;83.50;;;;;;4997340;28;20088;-80
2022/11/17 00:42:23;;;;;;;6.32;3.53;;;14.70;83.60;;;;;;4996587;28;20023;-80
2022/11/17 00:44:49;;;;;;;4.85;2.67;;;14.80;83.60;;;;;;4996937;28;20057;-80
2022/11/17 00:47:14;;;;;;;5.90;3.42;;;14.70;83.60;;;;;;4996976;28;20023;-80
2022/11/17 00:49:40;;;;;;;5.40;2.80;;;14.70;83.90;;;;;;4996780;28;20459;-80
2022/11/17 00:52:05;;;;;;;5.15;3.05;;;14.70;84.20;;;;;;4997715;28;20517;-80
2022/11/17 00:54:31;;;;;;;5.43;3.17;;;14.70;84.10;;;;;;4996538;28;20026;-80
2022/11/17 00:56:56;;;;;;;6.25;2.95;;;14.70;83.30;;;;;;4996263;28;20030;-78
2022/11/17 00:59:22;;;;;;;5.68;3.05;;;14.80;83.60;;;;;;4999804;28;20022;-80
2022/11/17 01:01:48;;;;;;;6.00;3.35;;;14.80;83.40;;;;;;5001332;28;20028;-80
2022/11/17 01:04:14;;;;;;;5.13;3.03;;;14.80;83.30;;;;;;5001058;28;20045;-80
2022/11/17 01:06:42;;;;;;;5.20;2.95;;;14.80;83.40;;;;;;5000912;28;20018;-80
2022/11/17 01:09:14;;;;;;;5.97;3.20;;;14.80;83.50;;;;;;5002278;28;20049;-79
2022/11/17 01:11:40;;;;;;;5.07;2.97;;;14.80;83.50;;;;;;4999985;28;20022;-78
2022/11/17 01:14:06;;;;;;;6.47;3.25;;;14.80;83.30;;;;;;5023338;23;20039;-87
2022/11/17 01:16:32;;;;;;;5.75;3.03;;;14.70;83.50;;;;;;4998619;28;20402;-88
2022/11/17 01:19:00;;;;;;;4.78;2.90;;;14.70;83.80;;;;;;4996620;28;20037;-84
2022/11/17 01:21:27;;;;;;;6.05;3.28;;;14.70;83.30;;;;;;5024285;28;20035;-87
2022/11/17 01:23:55;;;;;;;6.32;3.20;;;14.70;83.20;;;;;;5003900;28;20022;-88
2022/11/17 01:26:24;;;;;;;6.50;3.17;;;14.70;83.30;;;;;;5047527;28;20508;-85
2022/11/17 01:28:51;;;;;;;5.40;3.10;;;14.70;83.40;;;;;;5048816;28;20017;-85
2022/11/17 01:31:19;;;;;;;5.10;2.88;;;14.70;83.60;;;;;;5047363;28;20032;-86
2022/11/17 01:33:45;;;;;;;7.47;3.60;;;14.60;83.30;;;;;;5048288;28;20026;-86
2022/11/17 01:36:19;;;;;;;4.90;2.65;;;14.70;83.40;;;;;;5048016;28;20482;-85
2022/11/17 01:38:45;;;;;;;6.15;3.70;;;14.70;83.50;;;;;;5014803;28;20121;-86
2022/11/17 01:41:22;;;;;;;5.38;3.10;;;14.60;83.10;;;;;;5013794;28;20109;-86
2022/11/17 01:43:49;;;;;;;6.13;3.50;;;14.70;83.60;;;;;;5014602;28;20045;-85
2022/11/17 01:46:21;;;;;;;5.10;2.92;;;14.70;83.70;;;;;;5014541;28;20024;-86
2022/11/17 01:48:49;;;;;;;6.70;3.90;;;14.70;83.30;;;;;;5014247;28;20121;-86
2022/11/17 01:51:15;;;;;;;5.95;3.25;;;14.70;83.20;;;;;;5014355;28;20022;-86
2022/11/17 01:53:42;;;;;;;6.00;3.40;;;14.70;83.30;;;;;;5014460;28;20117;-85
2022/11/17 01:56:12;;;;;;;5.10;2.92;;;14.70;83.70;;;;;;5014265;28;20073;-85
2022/11/17 01:58:44;;;;;;;6.63;3.45;;;14.60;83.50;;;;;;5014123;28;20473;-86
2022/11/17 02:01:09;;;;;;;6.05;3.30;;;14.60;83.10;;;;;;5013724;28;20063;-86
2022/11/17 02:03:36;;;;;;;5.85;3.45;;;14.60;83.40;;;;;;5013767;28;20104;-86
2022/11/17 02:06:04;;;;;;;5.50;3.20;;;14.60;83.30;;;;;;5013945;28;20041;-86
2022/11/17 02:08:32;;;;;;;6.38;3.22;;;14.70;83.10;;;;;;5013794;28;20049;-86
2022/11/17 02:11:01;;;;;;;5.57;3.47;;;14.70;83.60;;;;;;5015063;28;20037;-86
2022/11/17 02:13:27;;;;;;;6.30;3.65;;;14.70;83.50;;;;;;5013573;28;20030;-86
2022/11/17 02:15:52;;;;;;;5.95;3.67;;;14.70;82.70;;;;;;5013691;28;20044;-86
2022/11/17 02:18:18;;;;;;;5.78;3.38;;;14.70;83.10;;;;;;5013545;28;20029;-86
2022/11/17 02:20:53;;;;;;;5.75;3.33;;;14.70;83.10;;;;;;5013354;28;20018;-86
2022/11/17 02:23:52;;;;;;;6.00;3.03;;;14.80;83.30;;;;;;5012853;28;20029;-85
2022/11/17 02:26:55;;;;;;;6.03;3.22;;;14.70;83.10;;;;;;5013420;28;20037;-85
2022/11/17 02:29:32;;;;;;;6.25;3.92;;;14.70;83.10;;;;;;5013368;28;20022;-86
2022/11/17 02:32:14;;;;;;;5.35;3.15;;;14.60;83.20;;;;;;5012532;28;20030;-86
2022/11/17 02:34:44;;;;;;;5.50;3.00;;;14.70;83.60;;;;;;5012614;28;20490;-85
2022/11/17 02:37:10;;;;;;;6.20;3.58;;;14.70;83.50;;;;;;5012691;28;20034;-86
2022/11/17 02:39:42;;;;;;;5.88;3.35;;;14.70;83.00;;;;;;5012659;28;20037;-86
2022/11/17 02:44:02;;;;;;;5.40;3.25;;;14.70;83.60;;;;;;5011788;28;20036;-85
2022/11/17 02:45:10;;;;;;;6.28;3.58;;;14.70;83.50;;;;;;5012844;28;20081;-86
2022/11/17 02:47:40;;;;;;;6.38;3.53;;;14.60;83.20;;;;;;5030819;28;20079;-86
2022/11/17 02:50:08;;;;;;;5.97;3.53;;;14.60;83.50;;;;;;5012115;28;20037;-86
2022/11/17 02:52:33;;;;;;;5.88;3.40;;;14.60;83.30;;;;;;5011303;28;20021;-86
2022/11/17 02:55:01;;;;;;;5.65;3.35;;;14.60;83.50;;;;;;5012621;28;20026;-87
2022/11/17 02:57:35;;;;;;;6.28;3.33;;;14.60;83.70;;;;;;5012903;28;20037;-86
2022/11/17 03:00:17;;;;;;;4.88;3.08;;;14.50;83.90;;;;;;5013114;28;20017;-86
2022/11/17 03:02:56;;;;;;;5.68;3.25;;;14.60;84.10;;;;;;5012459;28;20028;-87
2022/11/17 03:05:53;;;;;;;5.50;3.40;;;14.60;83.50;;;;;;5013969;28;20496;-87
2022/11/17 03:08:52;;;;;;;5.50;3.20;;;14.60;83.60;;;;;;5012535;28;20010;-86
2022/11/17 03:11:25;;;;;;;5.20;2.90;;;14.60;83.90;;;;;;5012992;28;20497;-86
2022/11/17 03:14:09;;;;;;;5.30;2.90;;;14.60;83.50;;;;;;5012394;28;20034;-87
2022/11/17 03:16:55;;;;;;;5.15;3.10;;;14.60;84.10;;;;;;5012307;28;20486;-86
2022/11/17 03:19:53;;;;;;;5.15;2.97;;;14.60;84.10;;;;;;5012421;28;20025;-85
2022/11/17 03:22:28;;;;;;;4.82;2.88;;;14.60;84.50;;;;;;5004309;28;20022;-86
2022/11/17 03:24:59;;;;;;;5.38;3.08;;;14.60;84.40;;;;;;5012239;28;20022;-85
2022/11/17 03:27:27;;;;;;;5.32;3.22;;;14.70;84.20;;;;;;5012353;28;20105;-86
2022/11/17 03:30:03;;;;;;;5.35;2.90;;;14.70;83.70;;;;;;5011785;28;20026;-85
2022/11/17 03:32:32;;;;;;;5.70;3.10;;;14.70;83.40;;;;;;5013126;28;20021;-85
2022/11/17 03:35:03;;;;;;;4.82;2.95;;;14.70;83.00;;;;;;5011722;28;20033;-86
2022/11/17 03:37:32;;;;;;;5.85;3.25;;;14.70;82.80;;;;;;5019838;28;20025;-89
2022/11/17 03:40:03;;;;;;;6.07;3.17;;;14.70;83.40;;;;;;5019173;28;20041;-89
2022/11/17 03:42:33;;;;;;;5.35;3.00;;;14.70;83.50;;;;;;5018231;28;20025;-87
2022/11/17 03:45:09;;;;;;;5.38;2.78;;;14.70;83.60;;;;;;5013028;28;20096;-88
2022/11/17 03:47:36;;;;;;;4.63;2.80;;;14.70;83.40;;;;;;5007681;28;20022;-86
2022/11/17 03:50:22;;;;;;;5.00;3.08;;;14.70;83.50;;;;;;5013016;28;20056;-86
2022/11/17 03:52:48;;;;;;;5.32;3.13;;;14.60;83.30;;;;;;5013674;28;20030;-86
2022/11/17 03:55:15;;;;;;;5.65;3.30;;;14.60;83.50;;;;;;5014055;28;20072;-85
2022/11/17 03:58:18;;;;;;;5.40;2.97;;;14.60;83.80;;;;;;5014043;28;20072;-87
2022/11/17 04:00:48;;;;;;;4.75;2.75;;;14.60;83.90;;;;;;5001471;28;20034;-87
2022/11/17 04:03:14;;;;;;;5.30;2.92;;;14.50;83.70;;;;;;5012980;28;20469;-86
2022/11/17 04:05:39;;;;;;;5.10;3.08;;;14.60;83.90;;;;;;5012293;28;20022;-86
2022/11/17 04:08:05;;;;;;;4.85;2.92;;;14.60;84.00;;;;;;5012755;28;20018;-86
2022/11/17 04:15:54;;;;;;;5.28;2.92;;;14.60;84.20;;;;;;5012827;28;20025;-86
2022/11/17 04:16:00;;;;;;;5.15;3.13;;;14.60;84.60;;;;;;5013428;28;20079;-87
2022/11/17 04:18:26;;;;;;;5.05;2.70;;;14.60;84.10;;;;;;5014102;28;20022;-87
2022/11/17 04:20:54;;;;;;;5.68;3.10;;;14.60;84.40;;;;;;5012197;28;20022;-87
2022/11/17 04:23:19;;;;;;;5.50;2.88;;;14.60;84.30;;;;;;5011711;28;20083;-86
2022/11/17 04:28:36;;;;;;;5.35;2.92;;;14.60;84.10;;;;;;5013320;28;20547;-85
2022/11/17 04:31:05;;;;;;;5.35;3.17;;;14.60;84.50;;;;;;5011647;28;20033;-86
2022/11/17 04:33:30;;;;;;;4.22;2.60;;;14.60;84.20;;;;;;5011833;28;20479;-87
2022/11/17 04:35:56;;;;;;;5.30;2.78;;;14.60;84.60;;;;;;5011758;28;20033;-86
2022/11/17 04:38:22;;;;;;;4.90;2.70;;;14.60;84.60;;;;;;5011840;28;20492;-86
2022/11/17 04:43:31;;;;;;;4.97;3.05;;;14.60;84.00;;;;;;4993013;28;20037;-86
2022/11/17 04:46:00;;;;;;;4.72;2.75;;;14.60;83.20;;;;;;5002947;28;20474;-85
2022/11/17 04:48:27;;;;;;;5.00;2.90;;;14.70;83.50;;;;;;5011476;28;20022;-86
2022/11/17 04:50:53;;;;;;;6.07;3.38;;;14.70;83.10;;;;;;5011199;28;20049;-85
2022/11/17 04:53:19;;;;;;;4.63;2.72;;;14.70;83.40;;;;;;5011158;28;20092;-86
2022/11/17 04:55:45;;;;;;;5.18;2.75;;;14.70;83.50;;;;;;5011367;28;20022;-86
2022/11/17 04:58:10;;;;;;;4.10;2.40;;;14.70;83.50;;;;;;5011157;28;20033;-86
2022/11/17 05:00:36;;;;;;;4.95;2.72;;;14.70;83.90;;;;;;5010860;28;20076;-86
2022/11/17 05:03:01;;;;;;;4.65;2.60;;;14.60;83.80;;;;;;5011271;28;20030;-85
2022/11/17 05:05:27;;;;;;;4.45;2.50;;;14.70;84.00;;;;;;5011009;28;20113;-86
2022/11/17 05:07:52;;;;;;;4.50;2.83;;;14.60;84.00;;;;;;5011040;28;20021;-85
2022/11/17 05:13:20;;;;;;;5.03;2.95;;;14.60;84.00;;;;;;5012388;28;20025;-85
2022/11/17 05:13:23;;;;;;;5.10;2.80;;;14.60;84.00;;;;;;5012014;28;20482;-86
2022/11/17 05:18:37;;;;;;;4.85;2.70;;;14.60;84.10;;;;;;5015365;28;20041;-86
2022/11/17 05:21:04;;;;;;;5.10;2.80;;;14.60;84.10;;;;;;5013959;28;20034;-86
2022/11/17 05:26:14;;;;;;;4.72;2.67;;;14.60;84.20;;;;;;5009764;28;20088;-85
2022/11/17 05:28:39;;;;;;;5.40;2.80;;;14.60;84.30;;;;;;5010058;28;20022;-85
2022/11/17 05:31:05;;;;;;;5.50;2.53;;;14.60;84.50;;;;;;5011185;28;20030;-80
2022/11/17 05:33:31;;;;;;;3.83;2.28;;;14.60;85.00;;;;;;5011939;28;20033;-80
2022/11/17 05:35:56;;;;;;;5.63;2.92;;;14.60;84.60;;;;;;5013456;28;20018;-80
2022/11/17 05:38:22;;;;;;;4.30;2.50;;;14.60;84.40;;;;;;5008573;28;20049;-80
2022/11/17 05:40:47;;;;;;;4.60;2.78;;;14.60;84.60;;;;;;5013594;28;20033;-80
2022/11/17 05:50:06;;;;;;;4.38;2.53;;;14.50;84.30;;;;;;5032952;28;20087;-82
2022/11/17 07:20:49;;;;;;;3.90;2.25;;;14.60;83.10;;;;;;5088234;28;20076;-85
2022/11/17 07:23:15;;;;;;;3.35;2.08;;;14.60;83.40;;;;;;5070953;28;20019;-86
2022/11/17 07:25:40;;;;;;;3.90;2.30;;;14.60;82.60;;;;;;5071935;28;20130;-85
2022/11/17 07:28:06;;;;;;;3.35;2.00;;;14.60;82.80;;;;;;5062640;28;20016;-86
2022/11/17 07:30:32;;;;;;;4.65;2.08;;;14.60;83.10;;;;;;5054687;28;20556;-85
2022/11/17 07:33:01;;;;;;;5.13;2.20;;;14.60;83.00;;;;;;5049700;28;20034;-86
2022/11/17 07:35:27;;;;;;;4.88;2.42;;;14.60;83.10;;;;;;5049875;28;20560;-87
2022/11/17 07:38:00;;;;;;;4.53;2.28;;;14.50;82.60;;;;;;5049843;28;20418;-85
2022/11/17 07:40:29;;;;;;;3.97;2.03;;;14.50;82.70;;;;;;5048254;28;20024;-86
2022/11/17 07:42:55;;;;;;;5.38;2.47;;;14.50;83.40;;;;;;5049219;28;20303;-86
2022/11/17 07:45:22;;;;;;;3.92;2.05;;;14.50;83.60;;;;;;5049445;28;20043;-86
2022/11/17 07:47:55;;;;;;;4.40;1.92;;;14.40;83.50;;;;;;5049503;28;20407;-86
2022/11/17 07:50:20;;;;;;;4.60;2.30;;;14.50;83.40;;;;;;5049374;28;20025;-86
2022/11/17 07:52:50;;;;;;;4.05;2.10;;;14.50;83.50;;;;;;5049430;28;20032;-86
2022/11/17 07:55:16;;;;;;;4.88;2.10;;;14.40;83.80;;;;;;5067808;28;20043;-86
2022/11/17 07:57:42;;;;;;;4.22;1.98;;;14.50;83.60;;;;;;5049325;28;20025;-85
2022/11/17 08:00:08;;;;;;;3.97;2.00;;;14.50;83.90;;;;;;5049313;28;20640;-86
2022/11/17 08:02:34;;;;;;;4.47;2.30;;;14.50;83.70;;;;;;5048853;28;20187;-86
2022/11/17 08:04:59;;;;;;;4.28;2.17;;;14.50;83.90;;;;;;5049069;28;20190;-86
2022/11/17 08:07:25;;;;;;;3.30;2.00;;;14.40;83.80;;;;;;5048797;28;20656;-85
2022/11/17 08:09:51;;;;;;;3.90;2.00;;;14.50;84.20;;;;;;5048984;28;20027;-86
2022/11/17 08:12:16;;;;;;;4.97;2.30;;;14.50;83.60;;;;;;5048592;28;20040;-85
2022/11/17 08:14:42;;;;;;;3.75;2.10;;;14.50;84.20;;;;;;5048597;28;20028;-85
2022/11/17 08:17:08;;;;;;;4.30;1.92;;;14.50;83.80;;;;;;5048511;28;20029;-86
2022/11/17 08:19:33;;;;;;;3.72;2.10;;;14.50;83.90;;;;;;5048593;28;20567;-85
2022/11/17 08:21:59;;;;;;;3.78;2.00;;;14.50;84.00;;;;;;5048277;28;20563;-84
2022/11/17 08:24:25;;;;;;;3.33;1.98;;;14.50;83.70;;;;;;5048783;28;20028;-87
2022/11/17 08:26:52;;;;;;;4.55;2.42;;;14.40;84.30;;;;;;5048854;28;20464;-87
2022/11/17 08:29:18;;;;;;;3.78;2.08;;;14.50;84.30;;;;;;5049257;28;20062;-86
2022/11/17 08:31:45;;;;;;;4.45;2.30;;;14.50;82.90;;;;;;5050718;28;20020;-82
2022/11/17 08:34:11;;;;;;;3.92;2.10;;;14.50;83.10;;;;;;5067937;28;20024;-82
2022/11/17 08:36:37;;;;;;;3.65;2.08;;;14.60;83.30;;;;;;5068743;28;20039;-83
2022/11/17 08:39:03;;;;;;;4.20;2.17;;;14.50;82.60;;;;;;5076321;28;20430;-84
2022/11/17 08:41:28;;;;;;;4.55;2.20;;;14.60;82.50;;;;;;5068889;28;20067;-85
2022/11/17 08:43:54;;;;;;;4.18;1.83;;;14.60;82.60;;;;;;5066829;28;20024;-88
2022/11/17 08:46:20;;;;;;;3.70;1.88;;;14.50;82.50;;;;;;5089055;28;20048;-88
2022/11/17 08:48:45;;;;;;;3.47;1.90;;;14.60;83.00;;;;;;5072773;28;20035;-88
2022/11/17 08:51:12;;;;;;;4.47;2.00;;;14.60;83.00;;;;;;5093142;28;20433;-87
2022/11/17 08:53:38;;;;;;;3.42;1.90;;;14.50;83.10;;;;;;5076564;28;20119;-87
2022/11/17 08:56:08;;;;;;;3.25;1.90;;;14.50;83.10;;;;;;5076264;28;20068;-89
2022/11/17 08:58:43;;;;;;;4.20;2.05;;;14.50;83.20;;;;;;5094632;28;20347;-88
2022/11/17 09:01:14;;;;;;;3.65;1.98;;;14.50;83.40;;;;;;5075643;28;20040;-88
2022/11/17 09:03:42;;;;;;;3.35;1.95;;;14.40;83.40;;;;;;5075300;28;20448;-87
2022/11/17 09:06:09;;;;;;;4.22;1.95;;;14.50;83.80;;;;;;5075083;28;20380;-86
2022/11/17 09:08:35;;;;;;;3.25;1.95;;;14.50;83.50;;;;;;5075155;28;20488;-87
2022/11/17 09:11:10;;;;;;;3.38;1.83;;;14.50;83.80;;;;;;5074286;28;20173;-87
2022/11/17 09:13:37;;;;;;;3.47;2.00;;;14.50;83.70;;;;;;5093054;28;20408;-87
2022/11/17 09:16:05;;;;;;;2.90;1.70;;;14.50;83.60;;;;;;5074184;28;20035;-87
2022/11/17 09:18:31;;;;;;;4.53;2.00;;;14.50;83.70;;;;;;5074145;28;20020;-85
2022/11/17 09:21:06;;;;;;;3.35;1.80;;;14.50;83.80;;;;;;5074084;28;20133;-86
2022/11/17 09:23:32;;;;;;;2.95;1.70;;;14.50;84.00;;;;;;5073902;28;20077;-87
2022/11/17 09:26:02;;;;;;;3.35;1.70;;;14.40;83.70;;;;;;5073657;28;20066;-86
2022/11/17 09:28:28;;;;;;;2.38;1.67;;;14.50;83.90;;;;;;5073418;28;20400;-85
2022/11/17 09:30:53;;;;;;;3.63;2.03;;;14.40;83.90;;;;;;5091305;28;20027;-86
2022/11/17 09:33:19;;;;;;;3.15;1.70;;;14.50;84.00;;;;;;5072953;28;20031;-86
2022/11/17 09:35:45;;;;;;;3.20;1.70;;;14.40;84.00;;;;;;5072866;28;20403;-88
2022/11/17 09:38:11;;;;;;;2.97;1.73;;;14.30;84.00;;;;;;5072347;28;20109;-86
2022/11/17 09:40:40;;;;;;;3.47;1.85;;;14.50;83.90;;;;;;5072729;28;20024;-85
2022/11/17 09:43:23;;;;;;;3.17;1.60;;;14.40;84.20;;;;;;5072565;28;20165;-85
2022/11/17 09:45:51;;;;;;;3.25;1.77;;;14.50;84.10;;;;;;5072779;28;20031;-86
2022/11/17 09:48:25;;;;;;;3.40;1.80;;;14.50;84.00;;;;;;5072283;28;20035;-86
2022/11/17 09:50:56;;;;;;;3.25;1.50;;;14.50;83.90;;;;;;5072007;28;20060;-86
2022/11/17 09:53:51;;;;;;;3.60;1.80;;;14.50;83.90;;;;;;5071779;28;20028;-87
2022/11/17 09:56:16;;;;;;;2.92;1.65;;;14.60;83.90;;;;;;5068910;28;20040;-86
2022/11/17 09:58:55;;;;;;;3.05;1.80;;;14.60;82.80;;;;;;5061766;28;20037;-89
2022/11/17 10:01:22;;;;;;;2.63;1.50;;;14.60;83.10;;;;;;5065143;28;20127;-86
2022/11/17 10:03:49;;;;;;;3.45;1.88;;;14.60;83.40;;;;;;5058517;28;20027;-85
2022/11/17 10:06:20;;;;;;;2.92;1.50;;;14.60;84.00;;;;;;5071139;28;20302;-85
2022/11/17 10:09:04;;;;;;;2.93;1.57;;;14.50;83.50;;;;;;5058594;28;20111;-87
2022/11/17 10:11:34;;;;;;;3.33;1.85;;;14.50;83.40;;;;;;5061699;28;20266;-85
2022/11/17 10:14:14;;;;;;;3.15;1.67;;;14.40;83.50;;;;;;5059752;28;20475;-85
2022/11/17 10:16:58;;;;;;;2.40;1.52;;;14.50;83.70;;;;;;5070919;28;20024;-86
2022/11/17 10:19:31;;;;;;;2.78;1.73;;;14.40;83.60;;;;;;5056212;28;20045;-86
2022/11/17 10:22:20;;;;;;;3.20;1.63;;;14.50;83.80;;;;;;5060386;28;20261;-86
2022/11/17 10:24:54;;;;;;;3.95;1.60;;;14.50;83.80;;;;;;5052637;28;20059;-85
2022/11/17 10:27:19;;;;;;;2.78;1.38;;;14.50;83.80;;;;;;5050765;28;20035;-88
2022/11/17 10:30:05;;;;;;;2.60;1.52;;;14.50;83.90;;;;;;5076764;28;20021;-86
2022/11/17 10:32:35;;;;;;;3.10;1.67;;;14.50;84.00;;;;;;5070254;28;20031;-86
2022/11/17 10:35:20;;;;;;;2.85;1.60;;;14.50;84.20;;;;;;5068155;28;20437;-85
2022/11/17 10:41:01;;;;;;;2.78;1.48;;;14.40;84.10;;;;;;5059788;28;20125;-87
2022/11/17 10:43:27;;;;;;;3.20;1.60;;;14.60;84.20;;;;;;5050485;28;20400;-86
2022/11/17 10:45:55;;;;;;;2.53;1.40;;;14.50;84.00;;;;;;5069625;28;20027;-88
2022/11/17 10:48:29;;;;;;;3.10;1.50;;;14.40;84.20;;;;;;5058806;28;20028;-86
2022/11/17 10:51:00;;;;;;;2.53;1.50;;;14.40;84.50;;;;;;5063278;28;20024;-84
2022/11/17 10:53:39;;;;;;;2.42;1.40;;;14.40;84.00;;;;;;5059239;28;20032;-84
2022/11/17 10:56:06;;;;;;;3.65;1.70;;;14.40;84.10;;;;;;5055701;28;20070;-83
2022/11/17 10:58:38;;;;;;;2.47;1.40;;;14.40;84.10;;;;;;5066021;28;20032;-83
2022/11/17 11:01:03;;;;;;;3.33;1.67;;;14.40;84.20;;;;;;5065715;28;20036;-85
2022/11/17 11:03:32;;;;;;;2.50;1.42;;;14.50;84.30;;;;;;5056841;28;20085;-86
2022/11/17 11:06:20;;;;;;;3.38;1.60;;;14.30;84.10;;;;;;5103108;23;20041;-80
2022/11/17 11:09:02;;;;;;;3.30;1.40;;;14.50;84.00;;;;;;5032454;28;20033;-79
2022/11/17 11:11:34;;;;;;;3.00;1.50;;;14.50;83.90;;;;;;5033696;28;20033;-78
2022/11/17 11:14:06;;;;;;;2.15;1.30;;;14.50;83.70;;;;;;5036939;28;20512;-79
2022/11/17 11:16:32;;;;;;;2.67;1.48;;;14.50;83.60;;;;;;5026899;28;20033;-79
2022/11/17 11:18:58;;;;;;;2.47;1.40;;;14.50;83.60;;;;;;5025411;28;20401;-79
2022/11/17 11:21:24;;;;;;;2.60;1.42;;;14.50;83.70;;;;;;5020117;28;20021;-80
2022/11/17 11:23:56;;;;;;;2.17;1.35;;;14.40;83.80;;;;;;5040741;28;20029;-79
2022/11/17 11:26:40;;;;;;;2.15;1.40;;;14.50;84.50;;;;;;5038409;28;20033;-80
2022/11/17 11:29:33;;;;;;;1.90;1.40;;;14.50;84.10;;;;;;5021799;28;20606;-79
2022/11/17 11:32:15;;;;;;;2.00;1.25;;;14.50;84.10;;;;;;5026110;28;20559;-76
2022/11/17 11:34:56;;;;;;;2.60;1.50;;;14.50;84.10;;;;;;5022469;28;20120;-79
2022/11/17 11:37:28;;;;;;;2.42;1.30;;;14.50;84.00;;;;;;5029337;28;20566;-80
2022/11/17 11:40:14;;;;;;;3.65;1.60;;;14.40;84.10;;;;;;5029931;28;20029;-79
2022/11/17 11:42:47;;;;;;;3.05;1.60;;;14.50;84.20;;;;;;5026888;28;20083;-81
2022/11/17 11:46:05;;;;;;;2.63;1.58;;;14.40;84.20;;;;;;5025274;28;20079;-79
2022/11/17 11:48:35;;;;;;;2.58;1.50;;;14.40;84.20;;;;;;5020417;28;20033;-80
2022/11/17 11:51:23;;;;;;;2.53;1.45;;;14.40;84.30;;;;;;5021334;28;20021;-80
2022/11/17 11:54:00;;;;;;;2.58;1.50;;;14.40;84.30;;;;;;5036138;28;20022;-78
2022/11/17 11:56:35;;;;;;;2.65;1.30;;;14.50;84.30;;;;;;5020522;28;20055;-80
2022/11/17 11:59:09;;;;;;;2.13;1.33;;;14.40;84.30;;;;;;5037490;28;20022;-78
2022/11/17 12:02:05;;;;;;;2.72;1.45;;;14.40;84.20;;;;;;5034389;28;20116;-79
2022/11/17 12:04:43;;;;;;;3.47;1.60;;;14.50;84.40;;;;;;5020779;28;20029;-79
2022/11/17 12:07:28;;;;;;;2.10;1.25;;;14.40;84.30;;;;;;5048083;28;20024;-78
2022/11/17 12:10:00;;;;;;;3.08;1.70;;;14.50;84.40;;;;;;5016196;28;20022;-78
2022/11/17 12:12:34;;;;;;;;;;;14.40;84.30;;;;;;5025917;28;20036;-79
2022/11/17 12:15:07;;;;;;;2.95;1.45;;;14.50;84.40;;;;;;5052908;28;20280;-79
2022/11/17 12:17:33;;;;;;;3.17;1.60;;;14.50;84.50;;;;;;5036636;28;20374;-79
2022/11/17 12:20:01;;;;;;;2.20;1.40;;;14.40;84.40;;;;;;5035053;28;20044;-78
2022/11/17 12:22:32;;;;;;;2.17;1.40;;;14.50;84.30;;;;;;5053009;28;20078;-78
2022/11/17 12:25:17;;;;;;;2.90;1.50;;;14.50;84.20;;;;;;5051159;28;20028;-78
2022/11/17 12:27:48;;;;;;;2.42;1.30;;;14.50;84.60;;;;;;5037597;28;20491;-79
2022/11/17 12:30:32;;;;;;;1.70;1.25;;;14.50;84.00;;;;;;5037555;28;20021;-77
2022/11/17 12:33:07;;;;;;;2.92;1.40;;;14.60;84.00;;;;;;5035824;28;20033;-78
2022/11/17 12:35:38;;;;;;;3.03;1.48;;;14.60;83.90;;;;;;5048267;28;20106;-79
2022/11/17 12:38:15;;;;;;;2.55;1.50;;;14.60;83.80;;;;;;5034316;28;20022;-79
2022/11/17 12:40:45;;;;;;;4.50;1.60;;;14.60;83.90;;;;;;5034370;28;20119;-78
2022/11/17 12:43:14;;;;;;;5.03;1.45;;;14.60;83.90;;;;;;5047578;28;20017;-79
2022/11/17 12:46:02;;;;;;;2.75;1.27;;;14.50;84.00;;;;;;5028081;28;20025;-79
2022/11/17 12:48:35;;;;;;;2.88;1.30;;;14.50;84.10;;;;;;5026595;28;20025;-79
2022/11/17 12:51:14;;;;;;;3.88;1.50;;;14.50;84.20;;;;;;5043190;28;20408;-78
2022/11/17 12:53:59;;;;;;;2.63;1.35;;;14.50;84.20;;;;;;5036318;28;20057;-79
2022/11/17 12:56:40;;;;;;;5.00;1.30;;;14.50;84.20;;;;;;5016703;28;20026;-79
2022/11/17 12:59:14;;;;;;;3.33;1.50;;;14.50;84.30;;;;;;5039366;28;20113;-78
2022/11/17 13:01:56;;;;;;;5.53;1.50;;;14.40;84.30;;;;;;5035069;28;20036;-79
2022/11/17 13:04:44;;;;;;;3.45;1.65;;;14.50;84.40;;;;;;5038153;28;20032;-79
2022/11/17 13:07:25;;;;;;;4.10;1.40;;;14.50;84.40;;;;;;5041392;28;20029;-81
2022/11/17 13:09:52;;;;;;;3.50;1.20;;;14.50;84.50;;;;;;5024265;28;20554;-79
2022/11/17 13:12:23;;;;;;;3.50;1.38;;;14.40;84.40;;;;;;5026973;28;20489;-81
2022/11/17 13:14:57;;;;;;;4.23;1.40;;;14.50;84.50;;;;;;5021277;28;20044;-79
2022/11/17 13:17:33;;;;;;;2.92;1.38;;;14.50;84.50;;;;;;5020053;28;20026;-80
2022/11/17 13:20:13;;;;;;;4.43;1.50;;;14.50;84.50;;;;;;5023468;28;20171;-76
2022/11/17 13:22:38;;;;;;;4.82;1.75;;;14.50;84.50;;;;;;5019413;28;20083;-76
2022/11/17 13:25:33;;;;;;;5.68;1.45;;;14.50;84.50;;;;;;5015405;28;20021;-76
2022/11/17 13:27:59;;;;;;;3.00;1.38;;;14.50;84.50;;;;;;5028450;28;20029;-77
2022/11/17 13:30:28;;;;;;;3.33;1.58;;;14.50;84.50;;;;;;5031985;28;20048;-76
2022/11/17 13:32:55;;;;;;;4.82;1.60;;;14.50;84.50;;;;;;5015088;28;20396;-78
2022/11/17 13:35:27;;;;;;;2.40;1.35;;;14.50;84.50;;;;;;5032104;28;20033;-76
2022/11/17 13:38:22;;;;;;;3.38;1.40;;;14.50;84.50;;;;;;5034085;28;20037;-76
2022/11/17 13:40:52;;;;;;;2.70;1.40;;;14.50;84.40;;;;;;5035977;28;20029;-78
2022/11/17 13:43:22;;;;;;;5.22;1.50;;;14.50;84.30;;;;;;5017253;28;20026;-76
2022/11/17 13:45:50;;;;;;;3.47;1.30;;;14.50;84.20;;;;;;5024180;28;20063;-78
2022/11/17 13:48:36;;;;;;;3.38;1.38;;;14.60;84.70;;;;;;5022389;28;20080;-78
2022/11/17 13:51:18;;;;;;;4.07;1.55;;;14.60;84.10;;;;;;5018035;28;20079;-77
2022/11/17 13:53:46;;;;;;;3.70;1.48;;;14.60;84.60;;;;;;5045851;28;20044;-79
2022/11/17 13:56:38;;;;;;;2.55;1.23;;;14.60;84.10;;;;;;5033013;28;20020;-81
2022/11/17 13:59:34;;;;;;;6.50;1.33;;;14.60;84.10;;;;;;5024512;28;20293;-77
2022/11/17 14:02:18;;;;;;;4.75;1.38;;;14.50;84.20;;;;;;5020855;28;20076;-80
2022/11/17 14:05:16;;;;;;;5.43;1.40;;;14.40;84.20;;;;;;5019047;28;20800;-80
2022/11/17 14:07:43;;;;;;;5.45;1.40;;;14.50;84.30;;;;;;5021704;28;20022;-80
2022/11/17 14:10:21;;;;;;;3.70;1.40;;;14.50;84.40;;;;;;5028247;28;20059;-81
2022/11/17 14:12:51;;;;;;;3.25;1.40;;;14.50;84.50;;;;;;5053926;28;20016;-80
2022/11/17 14:15:20;;;;;;;7.00;1.60;;;14.50;84.50;;;;;;5059331;28;20037;-80
2022/11/17 14:17:50;;;;;;;3.22;1.50;;;14.50;84.40;;;;;;5042638;28;20055;-81
2022/11/17 14:20:30;;;;;;;5.45;1.48;;;14.50;84.30;;;;;;5041314;28;20037;-78
2022/11/17 14:23:01;;;;;;;7.43;1.70;;;14.40;84.20;;;;;;5060012;28;20147;-81
2022/11/17 14:25:28;;;;;;;4.72;1.58;;;14.40;84.30;;;;;;5041302;28;20021;-79
2022/11/17 14:27:53;;;;;;;4.45;1.27;;;14.40;84.30;;;;;;5041005;28;20032;-81
2022/11/17 14:30:19;;;;;;;5.70;1.55;;;14.40;84.40;;;;;;5040043;28;20052;-77
2022/11/17 14:32:45;;;;;;;6.90;1.42;;;14.40;84.40;;;;;;5041004;28;20485;-79
2022/11/17 14:35:14;;;;;;;7.60;1.60;;;14.50;84.40;;;;;;5040088;28;20086;-81
2022/11/17 14:37:41;;;;;;;3.78;1.30;;;14.50;84.50;;;;;;5039783;28;20021;-79
2022/11/17 14:40:15;;;;;;;3.70;1.45;;;14.40;84.50;;;;;;5039287;28;20107;-79
2022/11/17 14:42:41;;;;;;;5.78;1.55;;;14.40;84.50;;;;;;5042273;28;20028;-80
2022/11/17 14:45:16;;;;;;;3.20;1.10;;;14.40;84.50;;;;;;5042552;28;20466;-80
2022/11/17 14:47:42;;;;;;;4.15;1.40;;;14.40;84.50;;;;;;5042167;28;20404;-79
2022/11/17 14:50:15;;;;;;;5.00;1.50;;;14.40;84.50;;;;;;5038413;28;20170;-79
2022/11/17 14:52:41;;;;;;;6.15;1.60;;;14.40;84.50;;;;;;5038334;28;20021;-79
2022/11/17 14:55:08;;;;;;;3.75;1.10;;;14.40;84.40;;;;;;5038386;28;20445;-80
2022/11/17 14:57:34;;;;;;;3.42;1.33;;;14.50;84.40;;;;;;5040118;28;20032;-79
2022/11/17 15:00:00;;;;;;;3.33;1.20;;;14.50;84.30;;;;;;5038906;28;20033;-79
2022/11/17 15:02:25;;;;;;;4.63;1.40;;;14.50;84.20;;;;;;5037823;28;20025;-81
2022/11/17 15:04:51;;;;;;;5.97;1.52;;;14.50;84.10;;;;;;5042419;28;20048;-80
2022/11/17 15:07:16;;;;;;;5.63;1.70;;;14.50;84.60;;;;;;5042125;28;20037;-80
2022/11/17 15:09:42;;;;;;;5.82;1.30;;;14.50;84.10;;;;;;5041861;28;20018;-81
2022/11/17 15:12:07;;;;;;;6.15;1.50;;;14.50;84.20;;;;;;5040996;28;20021;-80